createdAt,value
2018-10-07T00:01:27.258Z,80.45
2018-10-07T00:03:55.925Z,80.76
2018-10-07T00:06:24.690Z,80.77
2018-10-07T00:08:53.338Z,80.82
2018-10-07T00:11:22.005Z,81.00
2018-10-07T00:13:50.674Z,81.51
2018-10-07T00:16:19.369Z,81.83
2018-10-07T00:18:47.997Z,82.05
2018-10-07T00:21:16.758Z,82.33
2018-10-07T00:23:46.197Z,82.24
2018-10-07T00:26:14.874Z,81.19
2018-10-07T00:28:43.529Z,80.89
2018-10-07T00:33:46.081Z,81.12
2018-10-07T00:36:14.740Z,81.20
2018-10-07T00:38:43.421Z,81.50
2018-10-07T00:41:12.103Z,81.55
2018-10-07T00:43:40.783Z,81.32
2018-10-07T00:46:10.001Z,82.06
2018-10-07T00:48:38.815Z,82.19
2018-10-07T00:51:08.291Z,82.01
2018-10-07T00:53:37.001Z,81.65
2018-10-07T00:56:05.686Z,81.32
2018-10-07T00:58:34.353Z,81.34
2018-10-07T01:01:03.022Z,81.32
2018-10-07T01:03:31.650Z,81.44
2018-10-07T01:06:00.341Z,81.61
2018-10-07T01:08:28.977Z,82.29
2018-10-07T01:10:57.609Z,81.99
2018-10-07T01:13:26.283Z,82.42
2018-10-07T01:15:54.901Z,82.24
2018-10-07T01:18:23.577Z,82.52
2018-10-07T01:20:52.277Z,82.07
2018-10-07T01:23:20.952Z,82.11
2018-10-07T01:25:49.604Z,82.24
2018-10-07T01:28:18.378Z,82.28
2018-10-07T01:30:47.007Z,81.95
2018-10-07T01:33:15.648Z,81.51
2018-10-07T01:35:44.448Z,81.42
2018-10-07T01:38:13.162Z,81.99
2018-10-07T01:40:41.921Z,82.22
2018-10-07T01:43:10.572Z,82.37
2018-10-07T01:45:39.244Z,82.30
2018-10-07T01:48:07.969Z,82.38
2018-10-07T01:50:36.601Z,82.64
2018-10-07T01:53:05.241Z,83.05
2018-10-07T01:55:33.894Z,83.01
2018-10-07T01:58:02.544Z,83.02
2018-10-07T02:00:31.213Z,82.90
2018-10-07T02:02:59.867Z,82.71
2018-10-07T02:05:28.547Z,82.84
2018-10-07T02:07:57.197Z,83.09
2018-10-07T02:10:25.864Z,82.72
2018-10-07T02:12:54.531Z,82.53
2018-10-07T02:15:23.237Z,82.69
2018-10-07T02:17:51.854Z,82.88
2018-10-07T02:20:20.557Z,83.05
2018-10-07T02:22:49.234Z,83.28
2018-10-07T02:25:17.885Z,82.98
2018-10-07T02:27:46.640Z,82.93
2018-10-07T02:30:15.314Z,83.43
2018-10-07T02:32:44.069Z,83.20
2018-10-07T02:35:12.878Z,83.46
2018-10-07T02:37:41.548Z,84.01
2018-10-07T02:40:10.219Z,83.17
2018-10-07T02:42:38.861Z,84.23
2018-10-07T02:45:13.873Z,83.83
2018-10-07T02:47:42.520Z,84.49
2018-10-07T02:50:19.676Z,84.48
2018-10-07T02:52:50.166Z,85.04
2018-10-07T02:55:23.363Z,85.12
2018-10-07T02:57:53.637Z,85.62
2018-10-07T03:00:22.323Z,85.49
2018-10-07T03:02:51.521Z,85.84
2018-10-07T03:05:20.226Z,85.75
2018-10-07T03:07:49.329Z,86.29
2018-10-07T03:10:18.087Z,87.28
2018-10-07T03:12:46.875Z,87.13
2018-10-07T03:15:15.575Z,86.88
2018-10-07T03:17:44.218Z,87.15
2018-10-07T03:20:12.921Z,87.28
2018-10-07T03:22:41.654Z,87.09
2018-10-07T03:25:10.373Z,87.45
2018-10-07T03:27:39.085Z,87.47
2018-10-07T03:30:14.330Z,88.27
2018-10-07T03:32:42.937Z,88.00
2018-10-07T03:35:11.652Z,87.91
2018-10-07T03:37:40.302Z,88.36
2018-10-07T03:40:09.092Z,88.54
2018-10-07T03:42:37.735Z,88.72
2018-10-07T03:45:06.445Z,88.70
2018-10-07T03:47:35.117Z,89.05
2018-10-07T03:50:03.810Z,89.06
2018-10-07T03:52:32.426Z,89.39
2018-10-07T03:55:01.066Z,89.69
2018-10-07T03:57:29.700Z,89.47
2018-10-07T03:59:58.400Z,90.37
2018-10-07T04:02:27.109Z,90.44
2018-10-07T04:04:55.785Z,90.05
2018-10-07T04:07:24.594Z,90.74
2018-10-07T04:09:53.323Z,90.83
2018-10-07T04:12:21.983Z,91.39
2018-10-07T04:14:50.722Z,91.41
2018-10-07T04:17:19.393Z,91.89
2018-10-07T04:19:48.081Z,91.64
2018-10-07T04:22:16.818Z,91.65
2018-10-07T04:24:45.557Z,91.90
2018-10-07T04:27:14.270Z,92.05
2018-10-07T04:29:42.925Z,92.59
2018-10-07T04:32:11.632Z,92.25
2018-10-07T04:34:40.292Z,92.54
2018-10-07T04:37:08.983Z,92.82
2018-10-07T04:39:38.801Z,92.83
2018-10-07T04:42:07.576Z,93.02
2018-10-07T04:44:36.361Z,93.14
2018-10-07T04:47:05.165Z,93.46
2018-10-07T04:49:33.947Z,94.06
2018-10-07T04:52:02.605Z,93.88
2018-10-07T04:54:31.249Z,94.43
2018-10-07T04:56:59.949Z,94.13
2018-10-07T04:59:31.441Z,94.52
2018-10-07T05:02:00.217Z,94.45
2018-10-07T05:04:28.907Z,94.69
2018-10-07T05:06:57.805Z,94.59
2018-10-07T05:09:26.476Z,94.45
2018-10-07T05:11:57.314Z,94.18
2018-10-07T05:14:26.094Z,93.91
2018-10-07T05:16:54.881Z,94.30
2018-10-07T05:19:23.554Z,94.47
2018-10-07T05:21:52.309Z,94.55
2018-10-07T05:24:21.100Z,94.63
2018-10-07T05:26:49.924Z,94.15
2018-10-07T05:29:18.689Z,94.76
2018-10-07T05:31:47.415Z,94.31
2018-10-07T05:34:16.115Z,94.53
2018-10-07T05:36:44.813Z,94.16
2018-10-07T05:39:13.700Z,94.24
2018-10-07T05:41:42.403Z,94.24
2018-10-07T05:44:11.172Z,94.43
2018-10-07T05:46:39.782Z,94.38
2018-10-07T05:49:08.503Z,94.85
2018-10-07T05:51:37.154Z,94.69
2018-10-07T05:54:05.881Z,93.83
2018-10-07T05:56:34.525Z,94.00
2018-10-07T05:59:03.249Z,93.26
2018-10-07T06:01:46.419Z,93.52
2018-10-07T06:04:31.794Z,93.25
2018-10-07T06:07:01.710Z,92.72
2018-10-07T06:09:33.517Z,92.26
2018-10-07T06:12:02.238Z,92.48
2018-10-07T06:14:41.899Z,92.47
2018-10-07T06:17:10.559Z,92.37
2018-10-07T06:19:39.821Z,91.92
2018-10-07T06:22:08.580Z,91.89
2018-10-07T06:24:37.377Z,91.44
2018-10-07T06:27:06.619Z,91.91
2018-10-07T06:29:35.360Z,90.85
2018-10-07T06:32:04.061Z,90.56
2018-10-07T06:34:32.981Z,89.65
2018-10-07T06:37:01.728Z,89.45
2018-10-07T06:39:30.404Z,89.40
2018-10-07T06:41:59.164Z,88.61
2018-10-07T06:44:27.902Z,88.02
2018-10-07T06:46:56.747Z,87.38
2018-10-07T06:49:25.413Z,86.53
2018-10-07T06:51:54.110Z,86.70
2018-10-07T06:54:22.809Z,86.10
2018-10-07T06:56:51.665Z,85.82
2018-10-07T06:59:20.335Z,85.92
2018-10-07T07:01:49.024Z,85.54
2018-10-07T07:04:17.702Z,85.08
2018-10-07T07:06:46.389Z,84.37
2018-10-07T07:09:15.125Z,83.63
2018-10-07T07:11:43.808Z,83.85
2018-10-07T07:14:12.757Z,83.07
2018-10-07T07:16:41.455Z,82.17
2018-10-07T07:19:10.103Z,82.72
2018-10-07T07:21:38.792Z,82.69
2018-10-07T07:24:07.498Z,83.05
2018-10-07T07:26:36.238Z,82.91
2018-10-07T07:29:05.031Z,82.49
2018-10-07T07:31:33.738Z,81.31
2018-10-07T07:34:02.495Z,81.61
2018-10-07T07:36:31.761Z,80.52
2018-10-07T07:39:00.524Z,80.01
2018-10-07T07:41:29.309Z,79.59
2018-10-07T07:43:58.032Z,79.82
2018-10-07T07:46:26.783Z,79.52
2018-10-07T07:48:55.473Z,79.07
2018-10-07T07:51:24.128Z,77.76
2018-10-07T07:53:52.773Z,77.53
2018-10-07T07:56:21.424Z,77.10
2018-10-07T07:58:50.183Z,76.95
2018-10-07T08:01:18.926Z,78.18
2018-10-07T08:03:47.558Z,78.36
2018-10-07T08:06:16.232Z,78.86
2018-10-07T08:08:44.960Z,79.00
2018-10-07T08:11:13.618Z,79.15
2018-10-07T08:13:42.317Z,78.93
2018-10-07T08:16:11.045Z,78.60
2018-10-07T08:18:39.733Z,77.74
2018-10-07T08:21:08.450Z,77.19
2018-10-07T08:23:37.175Z,77.54
2018-10-07T08:26:05.938Z,77.88
2018-10-07T08:28:34.633Z,78.48
2018-10-07T08:31:03.337Z,78.58
2018-10-07T08:33:32.024Z,79.06
2018-10-07T08:36:00.745Z,78.82
2018-10-07T08:38:29.457Z,79.59
2018-10-07T08:40:58.122Z,79.20
2018-10-07T08:43:26.790Z,79.94
2018-10-07T08:45:55.486Z,79.69
2018-10-07T08:48:24.158Z,79.36
2018-10-07T08:50:52.870Z,79.46
2018-10-07T08:53:21.553Z,78.89
2018-10-07T08:55:50.277Z,79.25
2018-10-07T08:58:19.008Z,78.51
2018-10-07T09:00:47.777Z,78.42
2018-10-07T09:03:16.476Z,77.89
2018-10-07T09:05:45.213Z,77.87
2018-10-07T09:08:13.945Z,76.81
2018-10-07T09:10:42.673Z,75.11
2018-10-07T09:13:11.400Z,74.47
2018-10-07T09:15:40.048Z,72.96
2018-10-07T09:18:08.830Z,72.17
2018-10-07T09:20:37.501Z,70.97
2018-10-07T09:23:06.354Z,69.32
2018-10-07T09:25:35.086Z,68.63
2018-10-07T09:28:03.885Z,66.61
2018-10-07T09:30:32.797Z,65.68
2018-10-07T09:33:01.482Z,65.54
2018-10-07T09:35:32.721Z,65.11
2018-10-07T09:38:01.386Z,63.12
2018-10-07T09:40:30.647Z,63.42
2018-10-07T09:42:59.381Z,62.85
2018-10-07T09:45:28.143Z,61.38
2018-10-07T09:47:56.980Z,60.31
2018-10-07T09:50:25.689Z,59.97
2018-10-07T09:52:54.350Z,58.85
2018-10-07T09:55:23.063Z,58.16
2018-10-07T09:57:51.817Z,58.33
2018-10-07T10:00:25.425Z,58.02
2018-10-07T10:02:54.136Z,56.27
2018-10-07T10:05:22.847Z,56.95
2018-10-07T10:07:51.545Z,56.71
2018-10-07T10:10:20.249Z,55.84
2018-10-07T10:12:48.952Z,54.79
2018-10-07T10:15:17.685Z,54.59
2018-10-07T10:17:48.249Z,54.15
2018-10-07T10:20:21.281Z,53.35
2018-10-07T10:23:04.473Z,52.56
2018-10-07T10:25:44.979Z,52.64
2018-10-07T10:28:25.284Z,51.72
2018-10-07T10:31:14.359Z,50.63
2018-10-07T10:33:49.872Z,50.43
2018-10-07T10:36:28.117Z,50.82
2018-10-07T10:39:19.217Z,50.89
2018-10-07T10:42:53.885Z,50.44
2018-10-07T10:45:26.848Z,49.58
2018-10-07T10:47:58.789Z,48.61
2018-10-07T10:50:39.713Z,49.06
2018-10-07T10:53:21.663Z,48.52
2018-10-07T10:56:11.239Z,48.90
2018-10-07T11:00:54.584Z,49.33
2018-10-07T11:04:26.927Z,49.30
2018-10-07T11:07:13.354Z,50.07
2018-10-07T11:09:51.293Z,50.35
2018-10-07T11:12:30.385Z,50.65
2018-10-07T11:15:09.018Z,49.75
2018-10-07T11:17:48.980Z,49.76
2018-10-07T11:20:26.509Z,50.17
2018-10-07T11:23:06.194Z,50.01
2018-10-07T11:25:46.402Z,47.84
2018-10-07T11:28:23.157Z,47.87
2018-10-07T11:31:06.780Z,48.12
2018-10-07T11:35:51.844Z,48.71
2018-10-07T11:38:29.226Z,50.24
2018-10-07T11:41:33.577Z,49.34
2018-10-07T11:44:10.845Z,50.30
2018-10-07T11:49:04.416Z,49.47
2018-10-07T11:52:56.287Z,48.93
2018-10-07T11:55:24.966Z,48.22
2018-10-07T11:57:53.657Z,47.75
2018-10-07T12:00:22.517Z,47.46
2018-10-07T12:02:51.302Z,47.99
2018-10-07T12:05:19.944Z,47.84
2018-10-07T12:07:48.759Z,47.36
2018-10-07T12:10:17.552Z,47.33
2018-10-07T12:12:46.222Z,48.57
2018-10-07T12:15:14.958Z,48.65
2018-10-07T12:17:43.664Z,48.55
2018-10-07T12:20:12.619Z,47.56
2018-10-07T12:22:43.260Z,46.46
2018-10-07T12:25:11.981Z,46.31
2018-10-07T12:27:40.681Z,45.92
2018-10-07T12:30:09.450Z,45.53
2018-10-07T12:32:38.096Z,44.25
2018-10-07T12:35:06.825Z,44.16
2018-10-07T12:37:35.541Z,43.71
2018-10-07T12:40:04.343Z,44.42
2018-10-07T12:42:39.644Z,45.05
2018-10-07T12:45:08.348Z,44.99
2018-10-07T12:47:37.034Z,45.44
2018-10-07T12:50:05.817Z,45.40
2018-10-07T12:52:35.471Z,45.42
2018-10-07T12:55:04.202Z,45.38
2018-10-07T12:57:32.946Z,45.89
2018-10-07T13:00:01.703Z,46.14
2018-10-07T13:02:30.452Z,45.69
2018-10-07T13:04:59.170Z,45.67
2018-10-07T13:07:27.983Z,46.24
2018-10-07T13:09:56.710Z,47.02
2018-10-07T13:12:25.405Z,46.47
2018-10-07T13:14:54.092Z,46.51
2018-10-07T13:17:25.713Z,45.93
2018-10-07T13:19:54.361Z,46.81
2018-10-07T13:22:23.042Z,46.92
2018-10-07T13:24:51.697Z,47.05
2018-10-07T13:27:20.423Z,47.51
2018-10-07T13:29:49.109Z,47.80
2018-10-07T13:32:17.829Z,47.06
2018-10-07T13:34:46.502Z,46.12
2018-10-07T13:37:15.160Z,46.62
2018-10-07T13:39:43.891Z,47.47
2018-10-07T13:42:12.603Z,49.01
2018-10-07T13:44:41.328Z,49.96
2018-10-07T13:47:10.046Z,49.91
2018-10-07T13:49:38.709Z,50.29
2018-10-07T13:52:07.473Z,49.70
2018-10-07T13:54:36.170Z,49.57
2018-10-07T13:57:04.830Z,50.33
2018-10-07T13:59:33.575Z,50.52
2018-10-07T14:02:02.264Z,51.47
2018-10-07T14:04:31.013Z,52.38
2018-10-07T14:06:59.730Z,52.76
2018-10-07T14:09:28.432Z,54.32
2018-10-07T14:11:57.216Z,53.68
2018-10-07T14:14:25.878Z,55.46
2018-10-07T14:16:54.593Z,55.21
2018-10-07T14:19:23.585Z,54.24
2018-10-07T14:21:52.414Z,54.68
2018-10-07T14:24:21.133Z,55.90
2018-10-07T14:26:49.820Z,56.07
2018-10-07T14:29:18.608Z,56.02
2018-10-07T14:34:25.773Z,55.86
2018-10-07T14:36:54.470Z,55.87
2018-10-07T14:39:23.222Z,55.89
2018-10-07T14:41:51.831Z,56.43
2018-10-07T14:44:20.745Z,57.12
2018-10-07T14:46:49.452Z,57.87
2018-10-07T14:49:18.228Z,57.98
2018-10-07T14:51:46.869Z,57.99
2018-10-07T14:54:15.596Z,58.92
2018-10-07T14:56:44.262Z,59.36
2018-10-07T14:59:13.409Z,58.99
2018-10-07T15:01:43.592Z,59.40
2018-10-07T15:04:12.373Z,59.62
2018-10-07T15:06:41.157Z,59.88
2018-10-07T15:09:11.250Z,60.08
2018-10-07T15:11:40.059Z,60.85
2018-10-07T15:14:09.337Z,60.78
2018-10-07T15:16:38.185Z,61.72
2018-10-07T15:19:07.063Z,62.29
2018-10-07T15:21:35.757Z,62.75
2018-10-07T15:24:04.476Z,63.09
2018-10-07T15:26:33.170Z,63.05
2018-10-07T15:29:01.848Z,63.67
2018-10-07T15:31:30.549Z,63.74
2018-10-07T15:33:59.217Z,64.27
2018-10-07T15:36:27.951Z,64.67
2018-10-07T15:38:56.641Z,64.45
2018-10-07T15:41:25.354Z,65.17
2018-10-07T15:43:54.076Z,65.48
2018-10-07T15:46:22.777Z,65.98
2018-10-07T15:48:51.479Z,66.05
2018-10-07T15:51:25.242Z,66.11
2018-10-07T15:53:53.953Z,66.31
2018-10-07T15:56:22.669Z,66.71
2018-10-07T15:58:51.364Z,66.98
2018-10-07T16:01:20.080Z,67.67
2018-10-07T16:03:48.961Z,68.15
2018-10-07T16:06:17.642Z,68.51
2018-10-07T16:08:46.371Z,68.57
2018-10-07T16:11:15.088Z,68.88
2018-10-07T16:13:43.860Z,69.72
2018-10-07T16:16:13.209Z,69.55
2018-10-07T16:18:41.945Z,69.39
2018-10-07T16:21:10.698Z,69.70
2018-10-07T16:23:39.440Z,70.20
2018-10-07T16:26:08.284Z,69.56
2018-10-07T16:28:36.961Z,69.74
2018-10-07T16:31:05.656Z,69.84
2018-10-07T16:33:34.402Z,69.95
2018-10-07T16:36:03.054Z,70.51
2018-10-07T16:38:32.076Z,70.41
2018-10-07T16:41:00.786Z,70.31
2018-10-07T16:43:29.502Z,70.62
2018-10-07T16:45:58.188Z,70.44
2018-10-07T16:48:26.947Z,70.85
2018-10-07T16:50:55.644Z,70.78
2018-10-07T16:53:24.332Z,70.44
2018-10-07T16:55:53.040Z,70.66
2018-10-07T16:58:21.751Z,69.81
2018-10-07T17:00:55.915Z,70.93
2018-10-07T17:03:24.608Z,71.09
2018-10-07T17:05:53.265Z,70.71
2018-10-07T17:08:21.942Z,71.22
2018-10-07T17:10:50.650Z,70.81
2018-10-07T17:13:19.370Z,70.39
2018-10-07T17:15:48.166Z,70.33
2018-10-07T17:18:16.850Z,71.20
2018-10-07T17:20:45.628Z,70.72
2018-10-07T17:23:14.404Z,71.48
2018-10-07T17:25:43.114Z,71.23
2018-10-07T17:28:12.100Z,71.57
2018-10-07T17:30:40.816Z,71.70
2018-10-07T17:33:09.589Z,71.73
2018-10-07T17:35:38.358Z,71.46
2018-10-07T17:38:07.514Z,71.65
2018-10-07T17:40:36.316Z,72.17
2018-10-07T17:43:04.999Z,71.83
2018-10-07T17:45:33.738Z,71.65
2018-10-07T17:48:02.487Z,71.35
2018-10-07T17:50:31.225Z,72.29
2018-10-07T17:52:59.965Z,72.43
2018-10-07T17:55:28.830Z,72.95
2018-10-07T17:57:57.536Z,72.69
2018-10-07T18:00:26.335Z,73.25
2018-10-07T18:02:55.169Z,73.38
2018-10-07T18:05:23.721Z,73.12
2018-10-07T18:07:52.614Z,73.78
2018-10-07T18:10:21.372Z,72.98
2018-10-07T18:12:50.070Z,73.97
2018-10-07T18:15:18.758Z,73.45
2018-10-07T18:17:47.417Z,73.82
2018-10-07T18:20:16.127Z,74.03
2018-10-07T18:22:44.841Z,73.96
2018-10-07T18:25:13.535Z,74.02
2018-10-07T18:27:42.221Z,73.92
2018-10-07T18:30:10.944Z,73.94
2018-10-07T18:32:39.759Z,74.13
2018-10-07T18:35:08.483Z,74.14
2018-10-07T18:37:37.543Z,74.26
2018-10-07T18:40:06.433Z,74.34
2018-10-07T18:42:35.134Z,74.67
2018-10-07T18:45:03.834Z,74.73
2018-10-07T18:47:32.739Z,74.85
2018-10-07T18:50:01.485Z,74.99
2018-10-07T18:52:31.082Z,74.70
2018-10-07T18:54:59.852Z,74.26
2018-10-07T18:57:28.689Z,74.73
2018-10-07T18:59:57.470Z,75.20
2018-10-07T19:02:26.267Z,74.84
2018-10-07T19:04:55.111Z,75.33
2018-10-07T19:07:23.813Z,75.30
2018-10-07T19:09:52.698Z,75.27
2018-10-07T19:12:24.129Z,75.38
2018-10-07T19:14:52.885Z,74.91
2018-10-07T19:17:21.645Z,75.49
2018-10-07T19:19:50.436Z,75.55
2018-10-07T19:22:25.796Z,75.46
2018-10-07T19:24:54.517Z,75.45
2018-10-07T19:27:23.235Z,75.27
2018-10-07T19:29:51.975Z,75.47
2018-10-07T19:32:20.616Z,74.92
2018-10-07T19:34:49.328Z,74.73
2018-10-07T19:37:18.166Z,74.84
2018-10-07T19:39:46.784Z,75.64
2018-10-07T19:42:15.513Z,75.41
2018-10-07T19:44:44.296Z,75.44
2018-10-07T19:47:13.002Z,75.20
2018-10-07T19:49:43.210Z,75.13
2018-10-07T19:54:40.940Z,75.90
2018-10-07T19:57:09.678Z,75.42
2018-10-07T19:59:38.414Z,76.04
2018-10-07T20:02:07.221Z,76.07
2018-10-07T20:04:36.011Z,76.14
2018-10-07T20:07:04.962Z,76.14
2018-10-07T20:09:34.001Z,76.57
2018-10-07T20:12:02.797Z,76.51
2018-10-07T20:14:31.513Z,76.33
2018-10-07T20:17:00.718Z,76.23
2018-10-07T20:19:29.846Z,75.92
2018-10-07T20:21:58.879Z,76.57
2018-10-07T20:24:27.679Z,76.71
2018-10-07T20:26:56.651Z,76.49
2018-10-07T20:29:25.701Z,76.48
2018-10-07T20:31:54.734Z,77.06
2018-10-07T20:34:23.812Z,76.87
2018-10-07T20:36:52.894Z,77.30
2018-10-07T20:39:21.637Z,77.58
2018-10-07T20:41:50.359Z,77.87
2018-10-07T20:44:19.183Z,77.86
2018-10-07T20:46:47.913Z,78.05
2018-10-07T20:49:16.729Z,78.33
2018-10-07T20:51:45.441Z,77.95
2018-10-07T20:54:14.184Z,78.67
2018-10-07T20:56:42.878Z,78.78
2018-10-07T20:59:11.601Z,78.89
2018-10-07T21:01:40.338Z,79.36
2018-10-07T21:04:09.144Z,79.21
2018-10-07T21:06:38.024Z,79.36
2018-10-07T21:09:09.576Z,79.11
2018-10-07T21:11:38.606Z,79.29
2018-10-07T21:14:07.538Z,79.55
2018-10-07T21:16:36.246Z,80.11
2018-10-07T21:19:05.027Z,79.99
2018-10-07T21:21:33.724Z,79.55
2018-10-07T21:24:03.010Z,79.59
2018-10-07T21:26:31.766Z,80.44
2018-10-07T21:29:01.490Z,79.74
2018-10-07T21:31:30.216Z,79.68
2018-10-07T21:33:58.935Z,79.83
2018-10-07T21:36:27.629Z,79.91
2018-10-07T21:38:56.451Z,79.92
2018-10-07T21:41:25.330Z,80.66
2018-10-07T21:43:54.017Z,79.97
2018-10-07T21:46:22.885Z,79.76
2018-10-07T21:48:51.661Z,78.83
2018-10-07T21:51:20.474Z,78.47
2018-10-07T21:53:49.137Z,78.85
2018-10-07T21:56:17.834Z,77.63
2018-10-07T21:58:46.498Z,78.58
2018-10-07T22:01:15.244Z,77.99
2018-10-07T22:03:43.913Z,77.61
2018-10-07T22:06:12.672Z,77.77
2018-10-07T22:08:41.381Z,77.97
2018-10-07T22:11:10.137Z,78.29
2018-10-07T22:13:38.805Z,77.32
2018-10-07T22:16:07.551Z,77.83
2018-10-07T22:18:36.225Z,78.04
2018-10-07T22:21:04.940Z,78.60
2018-10-07T22:23:33.762Z,78.06
2018-10-07T22:26:02.470Z,78.99
2018-10-07T22:28:31.125Z,79.04
2018-10-07T22:31:00.190Z,78.88
2018-10-07T22:33:29.046Z,79.25
2018-10-07T22:35:57.924Z,79.93
2018-10-07T22:38:26.601Z,79.23
2018-10-07T22:40:57.856Z,78.92
2018-10-07T22:43:28.648Z,79.37
2018-10-07T22:45:58.739Z,79.45
2018-10-07T22:48:27.424Z,79.50
2018-10-07T22:50:56.140Z,80.18
2018-10-07T22:53:29.252Z,80.50
2018-10-07T22:55:57.964Z,80.04
2018-10-07T22:58:26.642Z,80.35
2018-10-07T23:00:55.305Z,80.26
2018-10-07T23:03:23.983Z,80.90
2018-10-07T23:05:52.659Z,81.00
2018-10-07T23:08:21.342Z,81.22
2018-10-07T23:10:50.028Z,81.19
2018-10-07T23:13:18.694Z,81.01
2018-10-07T23:15:47.509Z,81.39
2018-10-07T23:18:16.226Z,81.02
2018-10-07T23:20:44.931Z,81.09
2018-10-07T23:23:13.778Z,81.12
2018-10-07T23:25:42.494Z,80.80
2018-10-07T23:28:11.126Z,81.97
2018-10-07T23:30:39.813Z,81.75
2018-10-07T23:33:08.514Z,81.91
2018-10-07T23:35:37.197Z,81.50
2018-10-07T23:38:06.185Z,81.34
2018-10-07T23:40:34.962Z,81.46
2018-10-07T23:43:03.632Z,81.51
2018-10-07T23:45:32.320Z,81.53
2018-10-07T23:48:01.121Z,81.76
2018-10-07T23:50:29.816Z,81.35
2018-10-07T23:52:58.484Z,80.64
2018-10-07T23:55:27.167Z,80.09
2018-10-07T23:57:55.837Z,79.94
